Orbital elements of CZ-2C DEB
| Launched | 28 July 2011 |
| Flight ended | – |
| Launch site | Jiuquan Space Center, PRC |
| Owner | People's Republic of China |
| NORAD ID | 37767 |
| Date fetched |
Epoch osculation |
Inc. [°] |
Ecc. | RA asc node [hr] |
Arg Peri. [°] |
Mean anom [°] |
Mean motion [rev/day] |
Abs. mag |
| Date fetched |
Epoch osculation |
Inc. [°] |
Ecc. | RA asc node [hr] |
Arg Peri. [°] |
Mean anom [°] |
Mean motion [rev/day] |
Abs. mag |
| 2026 May 01 17:56 | 2026 Apr 30 15:14:45 | 97.9217 | 0.01213 | 13.1062 | 223.4271 | 135.7315 | 14.44760 | – |
| 2026 Apr 30 17:56 | 2026 Apr 30 15:14:45 | 97.9217 | 0.01213 | 13.1062 | 223.4271 | 135.7315 | 14.44760 | – |
| 2026 Apr 29 17:57 | 2026 Apr 24 11:18:40 | 97.9220 | 0.01209 | 12.7228 | 242.4556 | 135.7315 | 14.44760 | – |
| 2026 Apr 28 17:56 | 2026 Apr 24 11:18:40 | 97.9220 | 0.01209 | 12.7228 | 242.4556 | 135.7315 | 14.44760 | – |
| 2026 Apr 27 17:58 | 2026 Apr 24 11:18:40 | 97.9220 | 0.01209 | 12.7228 | 242.4556 | 135.7315 | 14.44760 | – |
| 2026 Apr 26 17:58 | 2026 Apr 24 11:18:40 | 97.9220 | 0.01209 | 12.7228 | 242.4556 | 135.7315 | 14.44760 | – |
| 2026 Apr 25 17:58 | 2026 Apr 24 11:18:40 | 97.9220 | 0.01209 | 12.7228 | 242.4556 | 135.7315 | 14.44760 | – |
| 2026 Apr 24 17:59 | 2026 Apr 24 11:18:40 | 97.9220 | 0.01209 | 12.7228 | 242.4556 | 135.7315 | 14.44760 | – |
| 2026 Apr 23 17:57 | 2026 Apr 19 11:37:55 | 97.9223 | 0.01205 | 12.4126 | 257.8949 | 135.7315 | 14.44760 | – |
| 2026 Apr 22 17:57 | 2026 Apr 19 11:37:55 | 97.9223 | 0.01205 | 12.4126 | 257.8949 | 135.7315 | 14.44760 | – |
| 2026 Apr 21 17:57 | 2026 Apr 19 11:37:55 | 97.9223 | 0.01205 | 12.4126 | 257.8949 | 135.7315 | 14.44760 | – |
| 2026 Apr 20 17:57 | 2026 Apr 19 11:37:55 | 97.9223 | 0.01205 | 12.4126 | 257.8949 | 135.7315 | 14.44760 | – |
| 2026 Apr 19 17:58 | 2026 Apr 19 11:37:55 | 97.9223 | 0.01205 | 12.4126 | 257.8949 | 135.7315 | 14.44760 | – |
| 2026 Apr 18 17:56 | 2026 Apr 13 04:22:09 | 97.9224 | 0.01202 | 12.0206 | 277.4747 | 135.7315 | 14.44760 | – |
| 2026 Apr 16 17:57 | 2026 Apr 13 04:22:09 | 97.9224 | 0.01202 | 12.0206 | 277.4747 | 135.7315 | 14.44760 | – |
| 2026 Apr 14 17:57 | 2026 Apr 13 04:22:09 | 97.9224 | 0.01202 | 12.0206 | 277.4747 | 135.7315 | 14.44760 | – |
| 2026 Apr 13 17:57 | 2026 Apr 13 04:22:09 | 97.9224 | 0.01202 | 12.0206 | 277.4747 | 135.7315 | 14.44760 | – |
| 2026 Apr 12 17:57 | 2026 Apr 08 14:39:41 | 97.9221 | 0.01201 | 11.7363 | 291.6694 | 135.7315 | 14.44760 | – |
| 2026 Apr 11 17:57 | 2026 Apr 08 14:39:41 | 97.9221 | 0.01201 | 11.7363 | 291.6694 | 135.7315 | 14.44760 | – |
| 2026 Apr 10 17:58 | 2026 Apr 08 14:39:41 | 97.9221 | 0.01201 | 11.7363 | 291.6694 | 135.7315 | 14.44760 | – |
| 2026 Apr 09 18:01 | 2026 Apr 08 14:39:41 | 97.9221 | 0.01201 | 11.7363 | 291.6694 | 135.7315 | 14.44760 | – |
| 2026 Apr 08 17:57 | 2026 Apr 08 14:39:41 | 97.9221 | 0.01201 | 11.7363 | 291.6694 | 135.7315 | 14.44760 | – |
| 2026 Apr 07 17:57 | 2026 Apr 02 04:04:15 | 97.9232 | 0.01202 | 11.3356 | 311.6673 | 135.7315 | 14.44760 | – |
| 2026 Apr 06 17:57 | 2026 Apr 02 04:04:15 | 97.9232 | 0.01202 | 11.3356 | 311.6673 | 135.7315 | 14.44760 | – |
| 2026 Apr 05 17:56 | 2026 Apr 02 04:04:15 | 97.9232 | 0.01202 | 11.3356 | 311.6673 | 135.7315 | 14.44760 | – |
| 2026 Apr 04 17:57 | 2026 Apr 02 04:04:15 | 97.9232 | 0.01202 | 11.3356 | 311.6673 | 135.7315 | 14.44760 | – |